Time;durP1;ratioP1;P1;durP2;ratioP2;P2;SDS_P1;SDS_P2;PMS_P1;PMS_P2;Temp;Humidity;BMP_temperature;BMP_pressure;BME280_temperature;BME280_humidity;BME280_pressure;Samples;Min_cycle;Max_cycle;Signal;HPM_P1;HPM_P2
2023/09/18 00:02:06;;;;;;;;;;;23.60;69.50;;;;;;5072774;28;19908;-56
2023/09/18 00:04:32;;;;;;;;;;;23.60;69.40;;;;;;5072854;28;19958;-56
2023/09/18 00:06:57;;;;;;;;;;;23.60;69.40;;;;;;5072845;28;19958;-56
2023/09/18 00:09:23;;;;;;;;;;;23.60;69.40;;;;;;5072853;28;19909;-56
2023/09/18 00:11:49;;;;;;;;;;;23.60;69.40;;;;;;5072700;28;19912;-56
2023/09/18 00:14:14;;;;;;;;;;;23.50;69.20;;;;;;5076603;28;20284;-56
2023/09/18 00:16:40;;;;;;;;;;;23.60;69.40;;;;;;5076666;28;20320;-56
2023/09/18 00:19:07;;;;;;;;;;;23.60;69.30;;;;;;5075289;28;20357;-56
2023/09/18 00:21:33;;;;;;;;;;;23.60;69.40;;;;;;5076570;28;19908;-56
2023/09/18 00:23:59;;;;;;;;;;;23.60;69.30;;;;;;5075467;28;19916;-56
2023/09/18 00:26:24;;;;;;;;;;;23.60;69.30;;;;;;5076463;28;19908;-55
2023/09/18 00:28:50;;;;;;;;;;;23.60;69.30;;;;;;5076471;28;19975;-56
2023/09/18 00:31:15;;;;;;;;;;;23.60;69.30;;;;;;5076546;28;19943;-56
2023/09/18 00:33:41;;;;;;;;;;;23.60;69.30;;;;;;5076409;28;19962;-56
2023/09/18 00:36:06;;;;;;;;;;;23.60;69.40;;;;;;5076393;28;19908;-55
2023/09/18 00:38:32;;;;;;;;;;;23.50;69.20;;;;;;5076287;28;19961;-55
2023/09/18 00:40:57;;;;;;;;;;;23.50;69.20;;;;;;5076325;28;19954;-55
2023/09/18 00:43:23;;;;;;;;;;;23.50;69.20;;;;;;5074969;28;19909;-56
2023/09/18 00:45:48;;;;;;;;;;;23.60;69.30;;;;;;5076211;28;19908;-55
2023/09/18 00:48:14;;;;;;;;;;;23.50;69.20;;;;;;5076162;28;19908;-56
2023/09/18 00:50:40;;;;;;;;;;;23.60;69.30;;;;;;5076096;28;19908;-56
2023/09/18 00:53:07;;;;;;;;;;;23.50;69.10;;;;;;5074836;28;19952;-56
2023/09/18 00:55:32;;;;;;;;;;;23.50;69.20;;;;;;5075977;28;20357;-55
2023/09/18 00:57:58;;;;;;;;;;;23.50;70.00;;;;;;5076286;28;19915;-56
2023/09/18 01:00:23;;;;;;;;;;;23.50;69.20;;;;;;5075926;28;19908;-56
2023/09/18 01:02:49;;;;;;;;;;;23.50;69.20;;;;;;5075912;28;20049;-56
2023/09/18 01:05:16;;;;;;;;;;;23.50;69.20;;;;;;5074625;28;19995;-56
2023/09/18 01:07:42;;;;;;;;;;;23.50;69.20;;;;;;5075787;28;19915;-56
2023/09/18 01:10:08;;;;;;;;;;;23.50;69.90;;;;;;5075705;28;19909;-56
2023/09/18 01:12:37;;;;;;;;;;;23.50;69.20;;;;;;5075559;28;19912;-55
2023/09/18 01:15:06;;;;;;;;;;;23.50;69.10;;;;;;5075603;28;19908;-56
2023/09/18 01:17:34;;;;;;;;;;;23.50;69.10;;;;;;5075528;28;19916;-56
2023/09/18 01:19:59;;;;;;;;;;;23.50;69.10;;;;;;5075501;28;19909;-56
2023/09/18 01:22:24;;;;;;;;;;;23.50;69.10;;;;;;5075491;28;19916;-56
2023/09/18 01:24:50;;;;;;;;;;;23.50;69.10;;;;;;5074677;28;19918;-56
2023/09/18 01:27:16;;;;;;;;;;;23.50;69.10;;;;;;5075379;28;19922;-57
2023/09/18 01:29:45;;;;;;;;;;;23.40;69.00;;;;;;5073980;28;19909;-56
2023/09/18 01:32:11;;;;;;;;;;;23.50;69.00;;;;;;5075150;28;19985;-56
2023/09/18 01:34:39;;;;;;;;;;;23.40;69.00;;;;;;5075223;28;20376;-56
2023/09/18 01:37:05;;;;;;;;;;;23.50;69.10;;;;;;5075281;28;19908;-55
2023/09/18 01:39:31;;;;;;;;;;;23.50;69.10;;;;;;5073932;28;19935;-56
2023/09/18 01:41:58;;;;;;;;;;;23.50;69.00;;;;;;5073961;28;19946;-56
2023/09/18 01:44:24;;;;;;;;;;;23.50;69.00;;;;;;5073911;28;19916;-56
2023/09/18 01:46:51;;;;;;;;;;;23.40;68.90;;;;;;5074963;28;19909;-56
2023/09/18 01:49:16;;;;;;;;;;;23.40;68.90;;;;;;5074981;28;19954;-56
2023/09/18 01:51:42;;;;;;;;;;;23.40;68.90;;;;;;5074707;28;19920;-56
2023/09/18 01:54:07;;;;;;;;;;;23.40;68.90;;;;;;5075044;28;19944;-56
2023/09/18 01:56:33;;;;;;;;;;;23.40;68.80;;;;;;5074826;28;19946;-56
2023/09/18 01:58:58;;;;;;;;;;;23.50;68.90;;;;;;5074991;28;19915;-56
2023/09/18 02:01:24;;;;;;;;;;;23.50;68.90;;;;;;5074811;28;19936;-56
2023/09/18 02:03:49;;;;;;;;;;;23.40;68.80;;;;;;5074666;28;19909;-56
2023/09/18 02:06:15;;;;;;;;;;;23.40;68.80;;;;;;5074877;28;20301;-55
2023/09/18 02:08:40;;;;;;;;;;;23.40;68.80;;;;;;5074683;28;19920;-55
2023/09/18 02:11:05;;;;;;;;;;;23.40;68.70;;;;;;5074506;28;19913;-56
2023/09/18 02:13:31;;;;;;;;;;;23.40;68.80;;;;;;5074429;28;20412;-56
2023/09/18 02:15:56;;;;;;;;;;;23.40;68.70;;;;;;5074461;28;19931;-56
2023/09/18 02:18:22;;;;;;;;;;;23.40;68.80;;;;;;5074414;28;19931;-56
2023/09/18 02:20:48;;;;;;;;;;;23.40;68.80;;;;;;5074334;28;19999;-55
2023/09/18 02:23:15;;;;;;;;;;;23.40;68.80;;;;;;5074376;28;19908;-55
2023/09/18 02:25:40;;;;;;;;;;;23.40;68.80;;;;;;5074344;28;19909;-56
2023/09/18 02:28:06;;;;;;;;;;;23.40;68.80;;;;;;5074251;28;19908;-56
2023/09/18 02:30:31;;;;;;;;;;;23.40;68.80;;;;;;5074212;28;19954;-56
2023/09/18 02:32:57;;;;;;;;;;;23.40;68.70;;;;;;5074222;28;19919;-56
2023/09/18 02:35:22;;;;;;;;;;;23.40;68.70;;;;;;5074199;28;19909;-56
2023/09/18 02:37:48;;;;;;;;;;;23.40;68.70;;;;;;5074022;28;19955;-56
2023/09/18 02:40:13;;;;;;;;;;;23.40;68.70;;;;;;5074065;28;19908;-56
2023/09/18 02:42:39;;;;;;;;;;;23.40;68.60;;;;;;5074016;28;19915;-55
2023/09/18 02:45:05;;;;;;;;;;;23.40;68.60;;;;;;5073904;28;19909;-56
2023/09/18 02:47:30;;;;;;;;;;;23.40;68.60;;;;;;5073843;28;19919;-55
2023/09/18 02:49:55;;;;;;;;;;;23.40;68.60;;;;;;5073789;28;19923;-56
2023/09/18 02:52:21;;;;;;;;;;;23.40;68.60;;;;;;5073607;28;19921;-56
2023/09/18 02:54:46;;;;;;;;;;;23.40;68.50;;;;;;5073590;28;19908;-55
2023/09/18 02:57:12;;;;;;;;;;;23.40;68.60;;;;;;5073657;28;19909;-56
2023/09/18 02:59:38;;;;;;;;;;;23.40;68.60;;;;;;5073563;28;20048;-56
2023/09/18 03:02:04;;;;;;;;;;;23.40;68.60;;;;;;5073663;28;19952;-56
2023/09/18 03:04:30;;;;;;;;;;;23.40;68.60;;;;;;5073526;28;19912;-56
2023/09/18 03:06:55;;;;;;;;;;;23.30;68.50;;;;;;5073591;28;19940;-55
2023/09/18 03:09:21;;;;;;;;;;;23.30;68.50;;;;;;5073415;28;19912;-56
2023/09/18 03:11:46;;;;;;;;;;;23.30;68.50;;;;;;5072106;28;19970;-56
2023/09/18 03:14:12;;;;;;;;;;;23.40;68.50;;;;;;5073390;28;19958;-56
2023/09/18 03:16:37;;;;;;;;;;;23.30;68.50;;;;;;5073253;28;19909;-55
2023/09/18 03:19:03;;;;;;;;;;;23.30;68.50;;;;;;5072026;28;19918;-56
2023/09/18 03:21:28;;;;;;;;;;;23.30;68.60;;;;;;5073701;28;19908;-56
2023/09/18 03:23:54;;;;;;;;;;;23.30;68.60;;;;;;5073297;28;19908;-56
2023/09/18 03:26:19;;;;;;;;;;;23.30;68.60;;;;;;5073282;28;19916;-56
2023/09/18 03:28:45;;;;;;;;;;;23.30;68.60;;;;;;5073198;28;19908;-56
2023/09/18 03:31:10;;;;;;;;;;;23.30;68.60;;;;;;5073144;28;20007;-56
2023/09/18 03:33:36;;;;;;;;;;;23.30;68.50;;;;;;5073035;28;19908;-56
2023/09/18 03:36:02;;;;;;;;;;;23.30;68.50;;;;;;5073048;28;19915;-55
2023/09/18 03:38:29;;;;;;;;;;;23.30;68.50;;;;;;5073071;28;19916;-55
2023/09/18 03:40:55;;;;;;;;;;;23.30;68.50;;;;;;5072983;28;19909;-56
2023/09/18 03:43:21;;;;;;;;;;;23.30;68.60;;;;;;5071607;28;19913;-56
2023/09/18 03:45:47;;;;;;;;;;;23.30;68.50;;;;;;5072931;28;19931;-56
2023/09/18 03:48:12;;;;;;;;;;;23.30;68.50;;;;;;5072249;28;20427;-56
2023/09/18 03:50:38;;;;;;;;;;;23.30;68.50;;;;;;5072659;28;20299;-56
2023/09/18 03:53:04;;;;;;;;;;;23.30;68.50;;;;;;5071508;28;19935;-56
2023/09/18 03:55:29;;;;;;;;;;;23.30;68.50;;;;;;5072685;28;19984;-56
2023/09/18 03:57:55;;;;;;;;;;;23.30;68.50;;;;;;5072726;28;20399;-56
2023/09/18 04:00:21;;;;;;;;;;;23.30;68.40;;;;;;5071359;28;19999;-55
2023/09/18 04:02:46;;;;;;;;;;;23.30;68.50;;;;;;5072687;28;20271;-56
2023/09/18 04:05:12;;;;;;;;;;;23.30;68.40;;;;;;5072725;28;20030;-56
2023/09/18 04:07:38;;;;;;;;;;;23.30;68.40;;;;;;5072784;28;19908;-56
2023/09/18 04:10:03;;;;;;;;;;;23.30;68.30;;;;;;5072749;28;19959;-56
2023/09/18 04:12:29;;;;;;;;;;;23.30;68.40;;;;;;5072656;28;20332;-55
2023/09/18 04:14:54;;;;;;;;;;;23.20;68.30;;;;;;5072532;28;19935;-56
2023/09/18 04:17:21;;;;;;;;;;;23.20;68.30;;;;;;5072594;28;19913;-56
2023/09/18 04:19:46;;;;;;;;;;;23.20;68.30;;;;;;5072590;28;19974;-56
2023/09/18 04:22:12;;;;;;;;;;;23.20;68.40;;;;;;5072569;28;19912;-56
2023/09/18 04:24:37;;;;;;;;;;;23.20;68.30;;;;;;5072501;28;19909;-56
2023/09/18 04:27:03;;;;;;;;;;;23.20;68.30;;;;;;5072463;28;19916;-56
2023/09/18 04:29:28;;;;;;;;;;;23.20;68.30;;;;;;5072616;28;19915;-56
2023/09/18 04:31:54;;;;;;;;;;;23.20;68.40;;;;;;5071133;28;19987;-56
2023/09/18 04:34:20;;;;;;;;;;;23.20;68.40;;;;;;5072462;28;19913;-56
2023/09/18 04:36:46;;;;;;;;;;;23.20;68.30;;;;;;5072388;28;19915;-56
2023/09/18 04:39:12;;;;;;;;;;;23.10;68.30;;;;;;5072342;28;19916;-56
2023/09/18 04:41:37;;;;;;;;;;;23.10;68.30;;;;;;5072375;28;19909;-56
2023/09/18 04:44:04;;;;;;;;;;;23.10;68.30;;;;;;5072343;28;19912;-56
2023/09/18 04:46:30;;;;;;;;;;;23.10;68.30;;;;;;5072325;28;20262;-55
2023/09/18 04:48:55;;;;;;;;;;;23.10;68.40;;;;;;5072228;28;19915;-56
2023/09/18 04:51:21;;;;;;;;;;;23.10;68.40;;;;;;5072033;28;20384;-56
2023/09/18 04:53:47;;;;;;;;;;;23.10;68.40;;;;;;5072223;28;19912;-55
2023/09/18 04:56:14;;;;;;;;;;;23.10;68.30;;;;;;5071388;28;20143;-55
2023/09/18 04:58:40;;;;;;;;;;;23.10;68.30;;;;;;5070872;28;19991;-56
2023/09/18 05:01:08;;;;;;;;;;;23.10;68.30;;;;;;5075352;28;19908;-56
2023/09/18 05:03:33;;;;;;;;;;;23.10;68.30;;;;;;5075824;28;19908;-56
2023/09/18 05:05:59;;;;;;;;;;;23.10;68.20;;;;;;5075891;28;20000;-55
2023/09/18 05:08:24;;;;;;;;;;;23.10;68.30;;;;;;5075703;28;19908;-56
2023/09/18 05:10:50;;;;;;;;;;;23.10;68.20;;;;;;5075771;28;20403;-55
2023/09/18 05:13:15;;;;;;;;;;;23.10;68.20;;;;;;5075594;28;19908;-56
2023/09/18 05:15:41;;;;;;;;;;;23.10;68.30;;;;;;5075576;28;19912;-56
2023/09/18 05:18:06;;;;;;;;;;;23.10;68.20;;;;;;5075528;28;20490;-56
2023/09/18 05:20:34;;;;;;;;;;;23.10;68.20;;;;;;5075512;28;19909;-55
2023/09/18 05:23:00;;;;;;;;;;;23.10;68.20;;;;;;5075499;28;19931;-55
2023/09/18 05:25:25;;;;;;;;;;;23.10;68.30;;;;;;5075507;28;19908;-55
2023/09/18 05:27:57;;;;;;;;;;;23.10;68.20;;;;;;5075663;28;19934;-57
2023/09/18 05:30:30;;;;;;;;;;;23.10;68.30;;;;;;5075330;28;19958;-56
2023/09/18 05:32:56;;;;;;;;;;;23.10;68.30;;;;;;5074077;28;19920;-55
2023/09/18 05:35:23;;;;;;;;;;;23.10;68.20;;;;;;5075332;28;19908;-56
2023/09/18 05:37:48;;;;;;;;;;;23.10;68.20;;;;;;5075264;28;19947;-57
2023/09/18 05:40:14;;;;;;;;;;;23.10;68.20;;;;;;5075233;28;19908;-57
2023/09/18 05:42:43;;;;;;;;;;;23.10;68.20;;;;;;5075140;28;20309;-57
2023/09/18 05:45:09;;;;;;;;;;;23.10;68.20;;;;;;5075153;28;19908;-57
2023/09/18 05:47:38;;;;;;;;;;;23.10;68.10;;;;;;5075311;28;20334;-57
2023/09/18 05:50:07;;;;;;;;;;;23.10;68.20;;;;;;5074957;28;19909;-58
2023/09/18 05:52:33;;;;;;;;;;;23.10;68.20;;;;;;5074618;28;19920;-57
2023/09/18 05:54:59;;;;;;;;;;;23.10;68.20;;;;;;5074889;28;19934;-57
2023/09/18 05:57:24;;;;;;;;;;;23.10;68.10;;;;;;5074850;28;19909;-57
2023/09/18 05:59:50;;;;;;;;;;;23.10;68.20;;;;;;5074777;28;20003;-56
2023/09/18 06:02:20;;;;;;;;;;;23.10;68.20;;;;;;5074815;28;19908;-58
2023/09/18 06:04:46;;;;;;;;;;;23.00;68.10;;;;;;5081235;28;19908;-57
2023/09/18 06:07:12;;;;;;;;;;;23.10;68.20;;;;;;5074567;28;19961;-57
2023/09/18 06:09:38;;;;;;;;;;;23.10;68.20;;;;;;5075000;28;19909;-57
2023/09/18 06:12:04;;;;;;;;;;;23.10;68.30;;;;;;5074374;28;19919;-57
2023/09/18 06:14:30;;;;;;;;;;;23.10;69.00;;;;;;5074489;28;19908;-56
2023/09/18 06:16:56;;;;;;;;;;;23.10;68.30;;;;;;5074510;28;20257;-56
2023/09/18 06:19:21;;;;;;;;;;;23.10;68.30;;;;;;5074330;28;19954;-57
2023/09/18 06:21:47;;;;;;;;;;;23.10;68.30;;;;;;5074339;28;19954;-57
2023/09/18 06:24:13;;;;;;;;;;;23.10;68.30;;;;;;5074297;28;19908;-57
2023/09/18 06:26:39;;;;;;;;;;;23.00;68.30;;;;;;5074081;28;19908;-57
2023/09/18 06:29:05;;;;;;;;;;;23.00;68.40;;;;;;5074059;28;19958;-56
2023/09/18 06:31:31;;;;;;;;;;;23.00;68.40;;;;;;5074012;28;19912;-57
2023/09/18 06:33:56;;;;;;;;;;;23.00;68.50;;;;;;5073927;28;20356;-57
2023/09/18 06:36:22;;;;;;;;;;;23.00;68.50;;;;;;5074139;28;19977;-57
2023/09/18 06:38:47;;;;;;;;;;;23.00;68.70;;;;;;5073905;28;19931;-57
2023/09/18 06:41:13;;;;;;;;;;;23.00;68.60;;;;;;5074014;28;20049;-57
2023/09/18 06:43:38;;;;;;;;;;;23.00;68.70;;;;;;5073772;28;20436;-56
2023/09/18 06:46:03;;;;;;;;;;;23.00;68.70;;;;;;5073845;28;19999;-56
2023/09/18 06:48:32;;;;;;;;;;;23.00;69.00;;;;;;5073810;28;19916;-57
2023/09/18 06:50:58;;;;;;;;;;;23.00;68.90;;;;;;5073412;28;19954;-57
2023/09/18 06:53:23;;;;;;;;;;;23.00;69.00;;;;;;5073651;28;19951;-57
2023/09/18 06:55:49;;;;;;;;;;;23.00;69.00;;;;;;5073548;28;19912;-57
2023/09/18 06:58:14;;;;;;;;;;;23.00;68.90;;;;;;5073540;28;19909;-57
2023/09/18 07:00:39;;;;;;;;;;;23.00;69.00;;;;;;5073591;28;20349;-57
2023/09/18 07:03:05;;;;;;;;;;;23.00;69.00;;;;;;5073522;28;19956;-57
2023/09/18 07:05:31;;;;;;;;;;;23.00;69.10;;;;;;5073424;28;19913;-56
2023/09/18 07:07:57;;;;;;;;;;;23.00;70.00;;;;;;5073787;28;20272;-54
2023/09/18 07:10:22;;;;;;;;;;;23.00;69.20;;;;;;5073423;28;19908;-57
2023/09/18 07:12:48;;;;;;;;;;;23.00;69.20;;;;;;5071899;28;19919;-56
2023/09/18 07:15:13;;;;;;;;;;;23.00;69.30;;;;;;5073243;28;19908;-56
2023/09/18 07:17:39;;;;;;;;;;;22.90;69.30;;;;;;5073199;28;19931;-57
2023/09/18 07:20:13;;;;;;;;;;;22.90;69.40;;;;;;5073260;28;19912;-57
2023/09/18 07:22:39;;;;;;;;;;;22.90;69.40;;;;;;5079237;28;19908;-57
2023/09/18 07:25:05;;;;;;;;;;;22.90;69.50;;;;;;5071842;28;19912;-57
2023/09/18 07:27:30;;;;;;;;;;;22.90;69.50;;;;;;5073332;28;20438;-56
2023/09/18 07:29:57;;;;;;;;;;;23.00;69.60;;;;;;5073050;28;19915;-57
2023/09/18 07:32:28;;;;;;;;;;;22.90;69.50;;;;;;5073071;28;19912;-57
2023/09/18 07:34:53;;;;;;;;;;;22.90;69.50;;;;;;5072999;28;19915;-57
2023/09/18 07:37:20;;;;;;;;;;;22.90;69.50;;;;;;5071848;28;19908;-56
2023/09/18 07:39:46;;;;;;;;;;;23.00;69.80;;;;;;5071678;28;19948;-56
2023/09/18 07:42:12;;;;;;;;;;;22.90;70.00;;;;;;5071547;28;19959;-57
2023/09/18 07:44:37;;;;;;;;;;;22.90;70.00;;;;;;5072726;28;19909;-56
2023/09/18 07:47:03;;;;;;;;;;;22.90;70.30;;;;;;5072817;28;19909;-56
2023/09/18 07:49:28;;;;;;;;;;;22.90;70.30;;;;;;5072649;28;19970;-56
2023/09/18 07:51:54;;;;;;;;;;;22.90;70.40;;;;;;5072392;28;19924;-57
2023/09/18 07:54:19;;;;;;;;;;;22.90;70.40;;;;;;5072803;28;20011;-57
2023/09/18 07:56:45;;;;;;;;;;;22.90;70.40;;;;;;5072557;28;19909;-57
2023/09/18 07:59:10;;;;;;;;;;;23.00;70.70;;;;;;5072792;28;19908;-56
2023/09/18 08:01:36;;;;;;;;;;;23.00;70.70;;;;;;5072568;28;19908;-57
2023/09/18 08:04:02;;;;;;;;;;;22.90;70.70;;;;;;5072647;28;20372;-57
2023/09/18 08:06:28;;;;;;;;;;;22.90;70.80;;;;;;5072708;28;19909;-57
2023/09/18 08:08:53;;;;;;;;;;;22.90;70.80;;;;;;5072753;28;19909;-57
2023/09/18 08:11:19;;;;;;;;;;;22.90;71.10;;;;;;5072648;28;19919;-57
2023/09/18 08:13:44;;;;;;;;;;;23.00;71.20;;;;;;5072355;28;20314;-57
2023/09/18 08:16:10;;;;;;;;;;;23.00;71.30;;;;;;5072610;28;19916;-57
2023/09/18 08:18:35;;;;;;;;;;;23.00;71.00;;;;;;5072422;28;19909;-57
2023/09/18 08:21:01;;;;;;;;;;;23.00;71.30;;;;;;5072380;28;19912;-57
2023/09/18 08:23:26;;;;;;;;;;;23.00;71.40;;;;;;5072478;28;19916;-54
2023/09/18 08:25:55;;;;;;;;;;;23.00;71.60;;;;;;5072296;28;19973;-57
2023/09/18 08:28:21;;;;;;;;;;;23.00;71.50;;;;;;5071036;28;20377;-57
2023/09/18 08:30:47;;;;;;;;;;;23.00;71.90;;;;;;5070947;28;19915;-57
2023/09/18 08:33:15;;;;;;;;;;;22.90;72.40;;;;;;5072830;28;19916;-54
2023/09/18 08:35:40;;;;;;;;;;;22.90;72.30;;;;;;5076472;28;19915;-57
2023/09/18 08:38:06;;;;;;;;;;;22.90;72.40;;;;;;5074992;28;20361;-56
2023/09/18 08:40:32;;;;;;;;;;;22.90;72.50;;;;;;5076051;28;20265;-57
2023/09/18 08:42:59;;;;;;;;;;;22.90;72.70;;;;;;5076072;28;19915;-57
2023/09/18 08:45:34;;;;;;;;;;;22.90;72.70;;;;;;5076134;28;19916;-57
2023/09/18 08:47:59;;;;;;;;;;;22.90;72.90;;;;;;5074783;28;19909;-56
2023/09/18 08:50:25;;;;;;;;;;;22.90;73.10;;;;;;5075805;28;20294;-57
2023/09/18 08:52:50;;;;;;;;;;;22.90;73.20;;;;;;5074336;28;19931;-57
2023/09/18 08:55:16;;;;;;;;;;;22.90;73.20;;;;;;5075835;28;20415;-57
2023/09/18 08:57:41;;;;;;;;;;;22.90;73.20;;;;;;5075766;28;20007;-54
2023/09/18 09:00:08;;;;;;;;;;;22.90;73.40;;;;;;5075836;28;19962;-57
2023/09/18 09:02:34;;;;;;;;;;;22.90;73.60;;;;;;5075716;28;20391;-57
2023/09/18 09:04:59;;;;;;;;;;;22.90;73.40;;;;;;5074440;28;19908;-57
2023/09/18 09:07:25;;;;;;;;;;;22.90;73.50;;;;;;5075802;28;20438;-56
2023/09/18 09:09:50;;;;;;;;;;;22.90;73.70;;;;;;5075523;28;19991;-59
2023/09/18 09:12:17;;;;;;;;;;;22.90;73.80;;;;;;5075539;28;20008;-56
2023/09/18 09:14:52;;;;;;;;;;;22.90;73.90;;;;;;5074251;28;19947;-57
2023/09/18 09:17:18;;;;;;;;;;;23.00;74.20;;;;;;5074266;28;19908;-57
2023/09/18 09:19:43;;;;;;;;;;;22.90;74.00;;;;;;5074322;28;19909;-57
2023/09/18 09:22:09;;;;;;;;;;;23.00;74.10;;;;;;5075470;28;19908;-57
2023/09/18 09:24:38;;;;;;;;;;;23.00;74.10;;;;;;5075481;28;20365;-57
2023/09/18 09:27:04;;;;;;;;;;;23.00;74.00;;;;;;5075518;28;20356;-57
2023/09/18 09:29:29;;;;;;;;;;;23.00;74.10;;;;;;5074018;28;19908;-57
2023/09/18 09:31:56;;;;;;;;;;;23.00;74.10;;;;;;5075276;28;20288;-57
2023/09/18 09:34:26;;;;;;;;;;;23.00;74.30;;;;;;5075338;28;19974;-57
2023/09/18 09:36:52;;;;;;;;;;;23.00;74.60;;;;;;5075172;28;19985;-57
2023/09/18 09:39:21;;;;;;;;;;;23.00;74.90;;;;;;5075088;28;19908;-56
2023/09/18 09:41:47;;;;;;;;;;;23.00;74.80;;;;;;5075052;28;20403;-56
2023/09/18 09:44:13;;;;;;;;;;;23.10;75.00;;;;;;5075163;28;19909;-56
2023/09/18 09:46:44;;;;;;;;;;;23.10;75.00;;;;;;5074177;28;19908;-56
2023/09/18 09:49:10;;;;;;;;;;;23.00;75.10;;;;;;5073933;28;19909;-54
2023/09/18 09:51:35;;;;;;;;;;;23.10;75.20;;;;;;5073290;28;19927;-56
2023/09/18 09:54:01;;;;;;;;;;;23.10;75.60;;;;;;5074893;28;19916;-57
2023/09/18 09:56:45;;;;;;;;;;;23.00;75.30;;;;;;5074657;28;19915;-57
2023/09/18 09:59:11;;;;;;;;;;;23.10;75.40;;;;;;5074854;28;19916;-56
2023/09/18 10:01:37;;;;;;;;;;;23.10;76.20;;;;;;5074570;28;19912;-57
2023/09/18 10:04:08;;;;;;;;;;;23.10;75.90;;;;;;5074710;28;19958;-57
2023/09/18 10:06:34;;;;;;;;;;;23.10;76.40;;;;;;5074628;28;19962;-57
2023/09/18 10:09:00;;;;;;;;;;;23.10;76.80;;;;;;5073291;28;19912;-57
2023/09/18 10:11:26;;;;;;;;;;;23.10;77.30;;;;;;5073284;28;19952;-56
2023/09/18 10:13:59;;;;;;;;;;;23.10;76.90;;;;;;5073223;28;19916;-57
2023/09/18 10:16:28;;;;;;;;;;;23.10;76.90;;;;;;5073180;28;19984;-57
2023/09/18 10:19:08;;;;;;;;;;;23.10;77.30;;;;;;5073156;28;19996;-55
2023/09/18 10:21:48;;;;;;;;;;;23.10;77.30;;;;;;5074257;28;20365;-57
2023/09/18 10:24:30;;;;;;;;;;;23.10;77.70;;;;;;5074285;28;19915;-57
2023/09/18 10:26:56;;;;;;;;;;;23.10;77.60;;;;;;5074116;28;19924;-57
2023/09/18 10:29:23;;;;;;;;;;;23.20;78.40;;;;;;5074142;28;19958;-57
2023/09/18 10:31:49;;;;;;;;;;;23.10;78.90;;;;;;5073977;28;19919;-57
2023/09/18 10:34:14;;;;;;;;;;;23.20;78.40;;;;;;5072743;28;19912;-56
2023/09/18 10:36:41;;;;;;;;;;;23.10;78.90;;;;;;5073937;28;19908;-56
2023/09/18 10:39:08;;;;;;;;;;;23.20;79.00;;;;;;5072765;28;19908;-57
2023/09/18 10:41:34;;;;;;;;;;;23.20;79.10;;;;;;5073765;28;19944;-57
2023/09/18 10:44:00;;;;;;;;;;;23.20;79.20;;;;;;5074079;28;19909;-57
2023/09/18 10:46:26;;;;;;;;;;;23.20;79.20;;;;;;5073769;28;20364;-57
2023/09/18 10:48:52;;;;;;;;;;;23.20;78.50;;;;;;5073661;28;19919;-55
2023/09/18 10:51:21;;;;;;;;;;;23.30;78.90;;;;;;5072179;28;20302;-57
2023/09/18 10:53:47;;;;;;;;;;;23.30;78.80;;;;;;5072485;28;19915;-56
2023/09/18 10:56:15;;;;;;;;;;;23.30;79.20;;;;;;5073313;28;19916;-57
2023/09/18 10:58:41;;;;;;;;;;;23.30;79.50;;;;;;5072664;28;19915;-57
2023/09/18 11:01:06;;;;;;;;;;;23.30;79.20;;;;;;5073465;28;19908;-56
2023/09/18 11:03:37;;;;;;;;;;;23.30;79.30;;;;;;5073257;28;20252;-56
2023/09/18 11:06:06;;;;;;;;;;;23.40;79.20;;;;;;5072157;28;19913;-57
2023/09/18 11:08:35;;;;;;;;;;;23.40;79.30;;;;;;5073284;28;19973;-56
2023/09/18 11:11:09;;;;;;;;;;;23.40;79.20;;;;;;5071955;28;19920;-56
2023/09/18 11:13:36;;;;;;;;;;;23.40;79.00;;;;;;5073551;28;19909;-56
2023/09/18 11:16:03;;;;;;;;;;;23.40;78.80;;;;;;5073341;28;20426;-57
2023/09/18 11:18:34;;;;;;;;;;;23.40;78.70;;;;;;5072005;28;19908;-57
2023/09/18 11:21:06;;;;;;;;;;;23.40;79.70;;;;;;5073489;28;20015;-59
2023/09/18 11:23:36;;;;;;;;;;;23.40;79.00;;;;;;5073261;28;20012;-57
2023/09/18 11:26:04;;;;;;;;;;;23.40;79.10;;;;;;5073075;28;19913;-57
2023/09/18 11:28:31;;;;;;;;;;;23.40;79.20;;;;;;5073189;28;19912;-57
2023/09/18 11:30:58;;;;;;;;;;;23.50;79.00;;;;;;5072929;28;19916;-57
2023/09/18 11:33:40;;;;;;;;;;;23.40;78.80;;;;;;5071799;28;20320;-57
2023/09/18 11:36:06;;;;;;;;;;;23.40;79.10;;;;;;5072899;28;19908;-56
2023/09/18 11:38:35;;;;;;;;;;;23.40;79.30;;;;;;5071671;28;19913;-57
2023/09/18 11:41:02;;;;;;;;;;;23.40;79.40;;;;;;5072783;28;19957;-56
2023/09/18 11:43:29;;;;;;;;;;;23.40;79.70;;;;;;5071815;28;19961;-57
2023/09/18 11:45:58;;;;;;;;;;;23.40;79.90;;;;;;5072776;28;19940;-57
2023/09/18 11:48:25;;;;;;;;;;;23.40;80.00;;;;;;5072907;28;19912;-57
2023/09/18 11:50:51;;;;;;;;;;;23.40;79.90;;;;;;5071141;28;19919;-56
2023/09/18 11:53:18;;;;;;;;;;;23.40;80.00;;;;;;5054784;28;19918;-57
2023/09/18 11:55:43;;;;;;;;;;;23.40;79.80;;;;;;5072741;28;19909;-57
2023/09/18 11:58:09;;;;;;;;;;;23.40;79.70;;;;;;5071548;28;19909;-57
2023/09/18 12:00:35;;;;;;;;;;;23.40;79.40;;;;;;5072667;28;19991;-57
2023/09/18 12:03:26;;;;;;;;;;;23.40;79.30;;;;;;5072604;28;19958;-57
2023/09/18 12:05:52;;;;;;;;;;;23.40;79.20;;;;;;5072542;28;19912;-57
2023/09/18 12:08:18;;;;;;;;;;;23.40;79.20;;;;;;5071828;28;19915;-56
2023/09/18 12:10:43;;;;;;;;;;;23.40;79.20;;;;;;5076589;28;19916;-57
2023/09/18 12:13:09;;;;;;;;;;;23.40;79.20;;;;;;5075418;28;20356;-54
2023/09/18 12:15:34;;;;;;;;;;;23.40;79.20;;;;;;5075418;28;19915;-57
2023/09/18 12:18:06;;;;;;;;;;;23.40;79.20;;;;;;5075496;28;19932;-57
2023/09/18 12:20:34;;;;;;;;;;;23.40;79.10;;;;;;5075355;28;20342;-56
2023/09/18 12:22:59;;;;;;;;;;;23.40;79.10;;;;;;5076571;28;19999;-57
2023/09/18 12:25:25;;;;;;;;;;;23.40;79.00;;;;;;5076570;28;20007;-57
2023/09/18 12:27:53;;;;;;;;;;;23.40;78.80;;;;;;5076377;28;19960;-57
2023/09/18 12:30:20;;;;;;;;;;;23.40;78.90;;;;;;5076407;28;19916;-57
2023/09/18 12:32:47;;;;;;;;;;;23.40;78.90;;;;;;5076323;28;20372;-57
2023/09/18 12:35:15;;;;;;;;;;;23.40;78.90;;;;;;5076259;28;19960;-57
2023/09/18 12:37:41;;;;;;;;;;;23.40;78.70;;;;;;5075003;28;19908;-57
2023/09/18 12:40:27;;;;;;;;;;;23.40;78.70;;;;;;5076183;28;19908;-54
2023/09/18 12:42:54;;;;;;;;;;;23.40;78.70;;;;;;5075860;28;19952;-57
2023/09/18 12:45:20;;;;;;;;;;;23.40;78.70;;;;;;5076132;28;19909;-57
2023/09/18 12:47:45;;;;;;;;;;;23.40;78.70;;;;;;5076024;28;19931;-56
2023/09/18 12:50:14;;;;;;;;;;;23.50;78.90;;;;;;5076063;28;19916;-57
2023/09/18 12:52:40;;;;;;;;;;;23.50;78.90;;;;;;5075795;28;20382;-57
2023/09/18 12:55:06;;;;;;;;;;;23.50;78.50;;;;;;5075866;28;19970;-57
2023/09/18 12:57:34;;;;;;;;;;;23.50;78.40;;;;;;5075899;28;19908;-57
2023/09/18 13:00:09;;;;;;;;;;;23.60;78.50;;;;;;5075837;28;19908;-56
2023/09/18 13:02:35;;;;;;;;;;;23.60;79.30;;;;;;5075859;28;19908;-57
2023/09/18 13:05:00;;;;;;;;;;;23.50;78.20;;;;;;5074567;28;19915;-58
2023/09/18 13:07:27;;;;;;;;;;;23.60;78.50;;;;;;5075666;28;19915;-57
2023/09/18 13:10:00;;;;;;;;;;;23.60;78.40;;;;;;5075872;28;20372;-57
2023/09/18 13:12:25;;;;;;;;;;;23.60;78.40;;;;;;5075721;28;20045;-57
2023/09/18 13:14:59;;;;;;;;;;;23.60;78.30;;;;;;5074294;28;19916;-57
2023/09/18 13:17:24;;;;;;;;;;;23.60;78.30;;;;;;5075478;28;19908;-57
2023/09/18 13:19:50;;;;;;;;;;;23.70;78.40;;;;;;5074615;28;19915;-57
2023/09/18 13:22:22;;;;;;;;;;;23.70;78.20;;;;;;5074096;28;19915;-57
2023/09/18 13:24:48;;;;;;;;;;;23.70;78.10;;;;;;5075410;28;19908;-56
2023/09/18 13:27:13;;;;;;;;;;;23.70;78.20;;;;;;5074086;28;19916;-57
2023/09/18 13:29:39;;;;;;;;;;;23.70;78.00;;;;;;5075447;28;19915;-57
2023/09/18 13:32:04;;;;;;;;;;;23.70;77.90;;;;;;5075211;28;19913;-56
2023/09/18 13:34:31;;;;;;;;;;;23.70;77.90;;;;;;5075160;28;20391;-56
2023/09/18 13:36:56;;;;;;;;;;;23.60;77.70;;;;;;5075231;28;19909;-56
2023/09/18 13:39:21;;;;;;;;;;;23.60;77.70;;;;;;5073790;28;20410;-57
2023/09/18 13:41:47;;;;;;;;;;;23.60;78.50;;;;;;5075173;28;20284;-56
2023/09/18 13:44:13;;;;;;;;;;;23.60;77.80;;;;;;5075208;28;19909;-56
2023/09/18 13:46:38;;;;;;;;;;;23.60;77.90;;;;;;5074926;28;20349;-56
2023/09/18 13:49:04;;;;;;;;;;;23.60;78.00;;;;;;5074798;28;19931;-56
2023/09/18 13:51:32;;;;;;;;;;;23.60;78.00;;;;;;5074972;28;19943;-56
2023/09/18 13:53:58;;;;;;;;;;;23.60;78.00;;;;;;5075085;28;19908;-56
2023/09/18 13:56:27;;;;;;;;;;;23.50;77.70;;;;;;5074600;28;19962;-56
2023/09/18 13:58:54;;;;;;;;;;;23.50;77.60;;;;;;5074810;28;20355;-56
2023/09/18 14:01:20;;;;;;;;;;;23.50;77.60;;;;;;5074728;28;19916;-56
2023/09/18 14:03:45;;;;;;;;;;;23.50;77.70;;;;;;5074773;28;19908;-56
2023/09/18 14:06:11;;;;;;;;;;;23.50;77.70;;;;;;5074806;28;19908;-56
2023/09/18 14:08:39;;;;;;;;;;;23.50;77.90;;;;;;5073339;28;19908;-57
2023/09/18 14:11:06;;;;;;;;;;;23.50;77.90;;;;;;5073706;28;20371;-56
2023/09/18 14:13:32;;;;;;;;;;;23.50;77.90;;;;;;5074579;28;19909;-56